sensor_id;sensor_type;location;lat;lon;timestamp;temperature;humidity
43999;DHT22;51319;52.162;5.302;2023-03-03T00:00:11;1.10;99.90
43999;DHT22;51319;52.162;5.302;2023-03-03T00:02:38;1.10;99.90
43999;DHT22;51319;52.162;5.302;2023-03-03T00:05:05;1.10;99.90
43999;DHT22;51319;52.162;5.302;2023-03-03T00:07:32;1.10;99.90
43999;DHT22;51319;52.162;5.302;2023-03-03T00:09:59;1.10;99.90
43999;DHT22;51319;52.162;5.302;2023-03-03T00:12:29;1.00;99.90
43999;DHT22;51319;52.162;5.302;2023-03-03T00:14:56;1.00;99.90
43999;DHT22;51319;52.162;5.302;2023-03-03T00:17:26;1.00;99.90
43999;DHT22;51319;52.162;5.302;2023-03-03T00:19:53;1.00;99.90
43999;DHT22;51319;52.162;5.302;2023-03-03T00:22:35;0.90;99.90
43999;DHT22;51319;52.162;5.302;2023-03-03T00:27:45;0.90;99.90
43999;DHT22;51319;52.162;5.302;2023-03-03T00:30:32;0.90;99.90
43999;DHT22;51319;52.162;5.302;2023-03-03T00:32:59;0.80;99.90
43999;DHT22;51319;52.162;5.302;2023-03-03T00:35:31;0.80;99.90
43999;DHT22;51319;52.162;5.302;2023-03-03T00:38:13;0.80;99.90
43999;DHT22;51319;52.162;5.302;2023-03-03T00:40:42;0.70;99.90
43999;DHT22;51319;52.162;5.302;2023-03-03T00:43:14;0.80;99.90
43999;DHT22;51319;52.162;5.302;2023-03-03T00:45:45;0.70;99.90
43999;DHT22;51319;52.162;5.302;2023-03-03T00:48:30;0.70;99.90
43999;DHT22;51319;52.162;5.302;2023-03-03T00:50:59;0.70;99.90
43999;DHT22;51319;52.162;5.302;2023-03-03T00:53:27;0.80;99.90
43999;DHT22;51319;52.162;5.302;2023-03-03T00:55:55;0.80;99.90
43999;DHT22;51319;52.162;5.302;2023-03-03T00:58:23;1.00;99.90
43999;DHT22;51319;52.162;5.302;2023-03-03T01:00:51;1.10;99.90
43999;DHT22;51319;52.162;5.302;2023-03-03T01:03:21;1.20;99.90
43999;DHT22;51319;52.162;5.302;2023-03-03T01:05:51;1.30;99.90
43999;DHT22;51319;52.162;5.302;2023-03-03T01:08:18;1.40;99.90
43999;DHT22;51319;52.162;5.302;2023-03-03T01:10:52;1.50;99.90
43999;DHT22;51319;52.162;5.302;2023-03-03T01:13:28;1.50;99.90
43999;DHT22;51319;52.162;5.302;2023-03-03T01:15:57;1.60;99.90
43999;DHT22;51319;52.162;5.302;2023-03-03T01:18:24;1.60;99.90
43999;DHT22;51319;52.162;5.302;2023-03-03T01:20:51;1.70;99.90
43999;DHT22;51319;52.162;5.302;2023-03-03T01:23:18;1.70;99.90
43999;DHT22;51319;52.162;5.302;2023-03-03T01:25:44;1.70;99.90
43999;DHT22;51319;52.162;5.302;2023-03-03T01:28:13;1.70;99.90
43999;DHT22;51319;52.162;5.302;2023-03-03T01:30:39;1.80;99.90
43999;DHT22;51319;52.162;5.302;2023-03-03T01:33:06;1.80;99.90
43999;DHT22;51319;52.162;5.302;2023-03-03T01:35:33;1.80;99.90
43999;DHT22;51319;52.162;5.302;2023-03-03T01:38:02;1.80;99.90
43999;DHT22;51319;52.162;5.302;2023-03-03T01:40:30;1.80;99.90
43999;DHT22;51319;52.162;5.302;2023-03-03T01:43:00;1.80;99.90
43999;DHT22;51319;52.162;5.302;2023-03-03T01:45:30;1.80;99.90
43999;DHT22;51319;52.162;5.302;2023-03-03T01:48:12;1.80;99.90
43999;DHT22;51319;52.162;5.302;2023-03-03T01:50:56;1.80;99.90
43999;DHT22;51319;52.162;5.302;2023-03-03T01:53:37;1.80;99.90
43999;DHT22;51319;52.162;5.302;2023-03-03T01:56:06;1.80;99.90
43999;DHT22;51319;52.162;5.302;2023-03-03T01:58:37;1.80;99.90
43999;DHT22;51319;52.162;5.302;2023-03-03T02:01:09;1.80;99.90
43999;DHT22;51319;52.162;5.302;2023-03-03T02:03:38;1.80;99.90
43999;DHT22;51319;52.162;5.302;2023-03-03T02:06:16;1.80;99.90
43999;DHT22;51319;52.162;5.302;2023-03-03T02:09:01;1.80;99.90
43999;DHT22;51319;52.162;5.302;2023-03-03T02:11:31;1.80;99.90
43999;DHT22;51319;52.162;5.302;2023-03-03T02:13:58;1.70;99.90
43999;DHT22;51319;52.162;5.302;2023-03-03T02:16:25;1.80;99.90
43999;DHT22;51319;52.162;5.302;2023-03-03T02:18:52;1.70;99.90
43999;DHT22;51319;52.162;5.302;2023-03-03T02:21:21;1.70;99.90
43999;DHT22;51319;52.162;5.302;2023-03-03T02:26:36;1.70;99.90
43999;DHT22;51319;52.162;5.302;2023-03-03T02:29:04;1.80;99.90
43999;DHT22;51319;52.162;5.302;2023-03-03T02:31:31;1.70;99.90
43999;DHT22;51319;52.162;5.302;2023-03-03T02:33:59;1.70;99.90
43999;DHT22;51319;52.162;5.302;2023-03-03T02:39:12;1.70;99.90
43999;DHT22;51319;52.162;5.302;2023-03-03T02:44:21;1.70;99.90
43999;DHT22;51319;52.162;5.302;2023-03-03T02:46:50;1.60;99.90
43999;DHT22;51319;52.162;5.302;2023-03-03T02:49:23;1.70;99.90
43999;DHT22;51319;52.162;5.302;2023-03-03T02:51:50;1.60;99.90
43999;DHT22;51319;52.162;5.302;2023-03-03T02:54:19;1.60;99.90
43999;DHT22;51319;52.162;5.302;2023-03-03T02:56:46;1.60;99.90
43999;DHT22;51319;52.162;5.302;2023-03-03T02:59:14;1.60;99.90
43999;DHT22;51319;52.162;5.302;2023-03-03T03:01:41;1.60;99.90
43999;DHT22;51319;52.162;5.302;2023-03-03T03:04:13;1.60;99.90
43999;DHT22;51319;52.162;5.302;2023-03-03T03:06:42;1.60;99.90
43999;DHT22;51319;52.162;5.302;2023-03-03T03:09:10;1.50;99.90
43999;DHT22;51319;52.162;5.302;2023-03-03T03:11:37;1.50;99.90
43999;DHT22;51319;52.162;5.302;2023-03-03T03:14:07;1.50;99.90
43999;DHT22;51319;52.162;5.302;2023-03-03T03:16:34;1.50;99.90
43999;DHT22;51319;52.162;5.302;2023-03-03T03:19:03;1.50;99.90
43999;DHT22;51319;52.162;5.302;2023-03-03T03:21:31;1.50;99.90
43999;DHT22;51319;52.162;5.302;2023-03-03T03:23:58;1.60;99.90
43999;DHT22;51319;52.162;5.302;2023-03-03T03:26:25;1.60;99.90
43999;DHT22;51319;52.162;5.302;2023-03-03T03:28:52;1.60;99.90
43999;DHT22;51319;52.162;5.302;2023-03-03T03:31:20;1.60;99.90
43999;DHT22;51319;52.162;5.302;2023-03-03T03:33:47;1.60;99.90
43999;DHT22;51319;52.162;5.302;2023-03-03T03:36:15;1.60;99.90
43999;DHT22;51319;52.162;5.302;2023-03-03T03:38:42;1.60;99.90
43999;DHT22;51319;52.162;5.302;2023-03-03T03:41:10;1.60;99.90
43999;DHT22;51319;52.162;5.302;2023-03-03T03:43:37;1.60;99.90
43999;DHT22;51319;52.162;5.302;2023-03-03T03:46:04;1.60;99.90
43999;DHT22;51319;52.162;5.302;2023-03-03T03:48:32;1.60;99.90
43999;DHT22;51319;52.162;5.302;2023-03-03T03:50:59;1.60;99.90
43999;DHT22;51319;52.162;5.302;2023-03-03T03:53:26;1.70;99.90
43999;DHT22;51319;52.162;5.302;2023-03-03T03:55:52;1.70;99.90
43999;DHT22;51319;52.162;5.302;2023-03-03T03:58:19;1.70;99.90
43999;DHT22;51319;52.162;5.302;2023-03-03T04:00:47;1.70;99.90
43999;DHT22;51319;52.162;5.302;2023-03-03T04:03:14;1.70;99.90
43999;DHT22;51319;52.162;5.302;2023-03-03T04:05:42;1.70;99.90
43999;DHT22;51319;52.162;5.302;2023-03-03T04:08:09;1.70;99.90
43999;DHT22;51319;52.162;5.302;2023-03-03T04:10:36;1.70;99.90
43999;DHT22;51319;52.162;5.302;2023-03-03T04:13:03;1.80;99.90
43999;DHT22;51319;52.162;5.302;2023-03-03T04:15:30;1.80;99.90
43999;DHT22;51319;52.162;5.302;2023-03-03T04:17:57;1.80;99.90
43999;DHT22;51319;52.162;5.302;2023-03-03T04:20:24;1.80;99.90
43999;DHT22;51319;52.162;5.302;2023-03-03T04:22:51;1.80;99.90
43999;DHT22;51319;52.162;5.302;2023-03-03T04:25:18;1.80;99.90
43999;DHT22;51319;52.162;5.302;2023-03-03T04:27:45;1.80;99.90
43999;DHT22;51319;52.162;5.302;2023-03-03T04:30:13;1.80;99.90
43999;DHT22;51319;52.162;5.302;2023-03-03T04:32:40;1.80;99.90
43999;DHT22;51319;52.162;5.302;2023-03-03T04:35:09;1.80;99.90
43999;DHT22;51319;52.162;5.302;2023-03-03T04:37:37;1.80;99.90
43999;DHT22;51319;52.162;5.302;2023-03-03T04:40:05;1.80;99.90
43999;DHT22;51319;52.162;5.302;2023-03-03T04:42:33;1.90;99.90
43999;DHT22;51319;52.162;5.302;2023-03-03T04:45:00;1.90;99.90
43999;DHT22;51319;52.162;5.302;2023-03-03T04:47:28;1.90;99.90
43999;DHT22;51319;52.162;5.302;2023-03-03T04:49:55;1.90;99.90
43999;DHT22;51319;52.162;5.302;2023-03-03T04:52:22;1.90;99.90
43999;DHT22;51319;52.162;5.302;2023-03-03T04:54:48;1.90;99.90
43999;DHT22;51319;52.162;5.302;2023-03-03T04:57:15;1.90;99.90
43999;DHT22;51319;52.162;5.302;2023-03-03T04:59:42;1.90;99.90
43999;DHT22;51319;52.162;5.302;2023-03-03T05:02:09;1.90;99.90
43999;DHT22;51319;52.162;5.302;2023-03-03T05:04:36;1.90;99.90
43999;DHT22;51319;52.162;5.302;2023-03-03T05:07:03;2.00;99.90
43999;DHT22;51319;52.162;5.302;2023-03-03T05:09:30;2.00;99.90
43999;DHT22;51319;52.162;5.302;2023-03-03T05:12:00;2.00;99.90
43999;DHT22;51319;52.162;5.302;2023-03-03T05:14:27;2.00;99.90
43999;DHT22;51319;52.162;5.302;2023-03-03T05:16:54;2.10;99.90
43999;DHT22;51319;52.162;5.302;2023-03-03T05:19:21;2.00;99.90
43999;DHT22;51319;52.162;5.302;2023-03-03T05:21:48;2.10;99.90
43999;DHT22;51319;52.162;5.302;2023-03-03T05:24:15;2.00;99.90
43999;DHT22;51319;52.162;5.302;2023-03-03T05:26:41;2.10;99.90
43999;DHT22;51319;52.162;5.302;2023-03-03T05:29:08;2.10;99.90
43999;DHT22;51319;52.162;5.302;2023-03-03T05:31:35;2.10;99.90
43999;DHT22;51319;52.162;5.302;2023-03-03T05:34:02;2.10;99.90
43999;DHT22;51319;52.162;5.302;2023-03-03T05:36:29;2.10;99.90
43999;DHT22;51319;52.162;5.302;2023-03-03T05:38:56;2.10;99.90
43999;DHT22;51319;52.162;5.302;2023-03-03T05:41:23;2.10;99.90
43999;DHT22;51319;52.162;5.302;2023-03-03T05:43:50;2.20;99.90
43999;DHT22;51319;52.162;5.302;2023-03-03T05:46:17;2.20;99.90
43999;DHT22;51319;52.162;5.302;2023-03-03T05:48:44;2.10;99.90
43999;DHT22;51319;52.162;5.302;2023-03-03T05:51:11;2.10;99.90
43999;DHT22;51319;52.162;5.302;2023-03-03T05:53:38;2.10;99.90
43999;DHT22;51319;52.162;5.302;2023-03-03T05:56:05;2.10;99.90
43999;DHT22;51319;52.162;5.302;2023-03-03T05:58:32;2.10;99.90
43999;DHT22;51319;52.162;5.302;2023-03-03T06:00:59;2.10;99.90
43999;DHT22;51319;52.162;5.302;2023-03-03T06:03:26;2.10;99.90
43999;DHT22;51319;52.162;5.302;2023-03-03T06:05:53;2.20;99.90
43999;DHT22;51319;52.162;5.302;2023-03-03T06:08:20;2.20;99.90
43999;DHT22;51319;52.162;5.302;2023-03-03T06:10:48;2.20;99.90
43999;DHT22;51319;52.162;5.302;2023-03-03T06:13:15;2.20;99.90
43999;DHT22;51319;52.162;5.302;2023-03-03T06:15:42;2.30;99.90
43999;DHT22;51319;52.162;5.302;2023-03-03T06:18:09;2.30;99.90
43999;DHT22;51319;52.162;5.302;2023-03-03T06:20:35;2.30;99.90
43999;DHT22;51319;52.162;5.302;2023-03-03T06:23:04;2.30;99.90
43999;DHT22;51319;52.162;5.302;2023-03-03T06:25:31;2.20;99.90
43999;DHT22;51319;52.162;5.302;2023-03-03T06:28:01;2.20;99.90
43999;DHT22;51319;52.162;5.302;2023-03-03T06:30:28;2.30;99.90
43999;DHT22;51319;52.162;5.302;2023-03-03T06:32:56;2.30;99.90
43999;DHT22;51319;52.162;5.302;2023-03-03T06:35:23;2.30;99.90
43999;DHT22;51319;52.162;5.302;2023-03-03T06:37:50;2.30;99.90
43999;DHT22;51319;52.162;5.302;2023-03-03T06:40:17;2.30;99.90
43999;DHT22;51319;52.162;5.302;2023-03-03T06:42:44;2.30;99.90
43999;DHT22;51319;52.162;5.302;2023-03-03T06:45:11;2.30;99.90
43999;DHT22;51319;52.162;5.302;2023-03-03T06:47:37;2.30;99.90
43999;DHT22;51319;52.162;5.302;2023-03-03T06:50:05;2.30;99.90
43999;DHT22;51319;52.162;5.302;2023-03-03T06:52:32;2.30;99.90
43999;DHT22;51319;52.162;5.302;2023-03-03T06:55:01;2.40;99.90
43999;DHT22;51319;52.162;5.302;2023-03-03T06:57:35;2.40;99.90
43999;DHT22;51319;52.162;5.302;2023-03-03T07:00:19;2.40;99.90
43999;DHT22;51319;52.162;5.302;2023-03-03T07:03:06;2.40;99.90
43999;DHT22;51319;52.162;5.302;2023-03-03T07:05:33;2.50;99.90
43999;DHT22;51319;52.162;5.302;2023-03-03T07:08:01;2.50;99.90
43999;DHT22;51319;52.162;5.302;2023-03-03T07:10:29;2.50;99.90
43999;DHT22;51319;52.162;5.302;2023-03-03T07:13:11;2.50;99.90
43999;DHT22;51319;52.162;5.302;2023-03-03T07:15:41;2.60;99.90
43999;DHT22;51319;52.162;5.302;2023-03-03T07:18:34;2.70;99.90
43999;DHT22;51319;52.162;5.302;2023-03-03T07:21:13;2.70;99.90
43999;DHT22;51319;52.162;5.302;2023-03-03T07:23:43;2.70;99.90
43999;DHT22;51319;52.162;5.302;2023-03-03T07:26:13;2.80;99.90
43999;DHT22;51319;52.162;5.302;2023-03-03T07:28:42;2.80;99.90
43999;DHT22;51319;52.162;5.302;2023-03-03T07:31:39;2.80;99.90
43999;DHT22;51319;52.162;5.302;2023-03-03T07:34:39;2.80;99.90
43999;DHT22;51319;52.162;5.302;2023-03-03T07:37:15;2.80;99.90
43999;DHT22;51319;52.162;5.302;2023-03-03T07:39:44;2.80;99.90
43999;DHT22;51319;52.162;5.302;2023-03-03T07:44:51;2.90;99.90
43999;DHT22;51319;52.162;5.302;2023-03-03T07:47:27;2.90;99.90
43999;DHT22;51319;52.162;5.302;2023-03-03T07:49:59;3.00;99.90
43999;DHT22;51319;52.162;5.302;2023-03-03T07:52:41;3.00;99.90
43999;DHT22;51319;52.162;5.302;2023-03-03T07:57:53;3.10;99.90
43999;DHT22;51319;52.162;5.302;2023-03-03T08:02:59;3.30;99.90
43999;DHT22;51319;52.162;5.302;2023-03-03T08:08:18;3.40;99.90
43999;DHT22;51319;52.162;5.302;2023-03-03T08:10:49;3.40;99.90
43999;DHT22;51319;52.162;5.302;2023-03-03T08:13:36;3.40;99.90
43999;DHT22;51319;52.162;5.302;2023-03-03T08:21:13;3.60;99.90
43999;DHT22;51319;52.162;5.302;2023-03-03T08:23:40;3.70;99.90
43999;DHT22;51319;52.162;5.302;2023-03-03T08:26:07;3.70;99.90
43999;DHT22;51319;52.162;5.302;2023-03-03T08:28:35;3.70;99.90
43999;DHT22;51319;52.162;5.302;2023-03-03T08:31:01;3.70;99.90
43999;DHT22;51319;52.162;5.302;2023-03-03T08:33:46;3.70;99.90
43999;DHT22;51319;52.162;5.302;2023-03-03T08:36:13;3.70;99.90
43999;DHT22;51319;52.162;5.302;2023-03-03T08:38:40;3.70;99.90
43999;DHT22;51319;52.162;5.302;2023-03-03T08:41:07;3.80;99.90
43999;DHT22;51319;52.162;5.302;2023-03-03T08:43:34;3.90;99.90
43999;DHT22;51319;52.162;5.302;2023-03-03T08:46:02;3.90;99.90
43999;DHT22;51319;52.162;5.302;2023-03-03T08:48:33;4.00;99.90
43999;DHT22;51319;52.162;5.302;2023-03-03T08:51:00;4.10;99.90
43999;DHT22;51319;52.162;5.302;2023-03-03T08:53:27;4.10;99.90
43999;DHT22;51319;52.162;5.302;2023-03-03T08:55:54;4.20;99.90
43999;DHT22;51319;52.162;5.302;2023-03-03T08:58:21;4.20;99.90
43999;DHT22;51319;52.162;5.302;2023-03-03T09:01:00;4.30;99.90
43999;DHT22;51319;52.162;5.302;2023-03-03T09:03:27;4.30;99.90
43999;DHT22;51319;52.162;5.302;2023-03-03T09:05:54;4.40;99.90
43999;DHT22;51319;52.162;5.302;2023-03-03T09:08:21;4.50;99.90
43999;DHT22;51319;52.162;5.302;2023-03-03T09:10:48;4.70;99.90
43999;DHT22;51319;52.162;5.302;2023-03-03T09:13:16;4.80;99.90
43999;DHT22;51319;52.162;5.302;2023-03-03T09:15:45;4.90;99.90
43999;DHT22;51319;52.162;5.302;2023-03-03T09:18:28;5.10;99.90
43999;DHT22;51319;52.162;5.302;2023-03-03T09:20:57;5.10;99.90
43999;DHT22;51319;52.162;5.302;2023-03-03T09:23:35;5.10;99.90
43999;DHT22;51319;52.162;5.302;2023-03-03T09:31:27;5.50;99.70
43999;DHT22;51319;52.162;5.302;2023-03-03T09:33:55;5.60;99.10
43999;DHT22;51319;52.162;5.302;2023-03-03T09:38:53;5.90;98.00
43999;DHT22;51319;52.162;5.302;2023-03-03T09:42:03;6.00;97.40
43999;DHT22;51319;52.162;5.302;2023-03-03T09:55:57;6.30;95.30
43999;DHT22;51319;52.162;5.302;2023-03-03T10:01:49;6.40;94.10
43999;DHT22;51319;52.162;5.302;2023-03-03T10:04:43;6.60;94.10
43999;DHT22;51319;52.162;5.302;2023-03-03T10:12:46;9.00;89.70
43999;DHT22;51319;52.162;5.302;2023-03-03T10:17:57;10.80;79.90
43999;DHT22;51319;52.162;5.302;2023-03-03T10:23:19;10.50;76.20
43999;DHT22;51319;52.162;5.302;2023-03-03T10:31:46;11.00;76.00
43999;DHT22;51319;52.162;5.302;2023-03-03T10:42:17;9.90;71.50
43999;DHT22;51319;52.162;5.302;2023-03-03T10:45:18;10.70;74.90
43999;DHT22;51319;52.162;5.302;2023-03-03T10:47:53;13.20;70.40
43999;DHT22;51319;52.162;5.302;2023-03-03T10:59:26;20.80;48.40
43999;DHT22;51319;52.162;5.302;2023-03-03T11:07:19;23.10;42.20
43999;DHT22;51319;52.162;5.302;2023-03-03T11:09:51;23.70;41.40
43999;DHT22;51319;52.162;5.302;2023-03-03T11:12:34;24.30;40.00
43999;DHT22;51319;52.162;5.302;2023-03-03T11:20:55;25.90;37.10
43999;DHT22;51319;52.162;5.302;2023-03-03T11:40:49;21.90;37.30
43999;DHT22;51319;52.162;5.302;2023-03-03T11:49:14;23.20;35.40
43999;DHT22;51319;52.162;5.302;2023-03-03T11:55:16;25.20;34.60
43999;DHT22;51319;52.162;5.302;2023-03-03T11:58:11;26.30;33.70
43999;DHT22;51319;52.162;5.302;2023-03-03T12:03:52;25.20;33.00
43999;DHT22;51319;52.162;5.302;2023-03-03T12:09:45;22.60;34.90
43999;DHT22;51319;52.162;5.302;2023-03-03T12:15:26;18.90;39.60
43999;DHT22;51319;52.162;5.302;2023-03-03T12:18:03;17.60;41.30
43999;DHT22;51319;52.162;5.302;2023-03-03T12:25:45;18.40;42.10
43999;DHT22;51319;52.162;5.302;2023-03-03T12:28:27;17.90;41.90
43999;DHT22;51319;52.162;5.302;2023-03-03T12:33:48;19.20;41.70
43999;DHT22;51319;52.162;5.302;2023-03-03T12:44:07;15.40;45.90
43999;DHT22;51319;52.162;5.302;2023-03-03T12:46:45;15.10;47.30
43999;DHT22;51319;52.162;5.302;2023-03-03T12:49:18;15.80;46.70
43999;DHT22;51319;52.162;5.302;2023-03-03T12:54:48;17.80;44.20
43999;DHT22;51319;52.162;5.302;2023-03-03T12:57:55;17.60;43.10
43999;DHT22;51319;52.162;5.302;2023-03-03T13:00:47;17.20;45.20
43999;DHT22;51319;52.162;5.302;2023-03-03T13:06:22;17.30;44.00
43999;DHT22;51319;52.162;5.302;2023-03-03T13:11:54;15.90;44.90
43999;DHT22;51319;52.162;5.302;2023-03-03T13:14:40;15.30;45.80
43999;DHT22;51319;52.162;5.302;2023-03-03T13:17:25;14.70;46.70
43999;DHT22;51319;52.162;5.302;2023-03-03T13:20:18;14.20;48.30
43999;DHT22;51319;52.162;5.302;2023-03-03T13:25:45;13.30;49.90
43999;DHT22;51319;52.162;5.302;2023-03-03T13:31:21;12.70;51.20
43999;DHT22;51319;52.162;5.302;2023-03-03T13:33:57;12.50;51.70
43999;DHT22;51319;52.162;5.302;2023-03-03T13:36:37;12.40;51.70
43999;DHT22;51319;52.162;5.302;2023-03-03T13:39:22;12.30;52.20
43999;DHT22;51319;52.162;5.302;2023-03-03T13:44:49;12.20;52.90
43999;DHT22;51319;52.162;5.302;2023-03-03T13:47:42;12.10;52.20
43999;DHT22;51319;52.162;5.302;2023-03-03T14:02:12;11.90;51.30
43999;DHT22;51319;52.162;5.302;2023-03-03T14:04:52;11.90;51.50
43999;DHT22;51319;52.162;5.302;2023-03-03T14:10:25;12.00;51.20
43999;DHT22;51319;52.162;5.302;2023-03-03T14:13:08;12.00;51.60
43999;DHT22;51319;52.162;5.302;2023-03-03T14:15:44;12.00;51.50
43999;DHT22;51319;52.162;5.302;2023-03-03T14:20:48;12.00;51.20
43999;DHT22;51319;52.162;5.302;2023-03-03T14:23:29;12.00;50.80
43999;DHT22;51319;52.162;5.302;2023-03-03T14:26:08;12.00;50.80
43999;DHT22;51319;52.162;5.302;2023-03-03T14:28:47;12.00;50.50
43999;DHT22;51319;52.162;5.302;2023-03-03T14:31:25;12.00;50.70
43999;DHT22;51319;52.162;5.302;2023-03-03T14:36:31;12.10;51.10
43999;DHT22;51319;52.162;5.302;2023-03-03T14:38:58;12.10;51.10
43999;DHT22;51319;52.162;5.302;2023-03-03T14:41:38;11.90;51.10
43999;DHT22;51319;52.162;5.302;2023-03-03T14:44:24;11.80;51.20
43999;DHT22;51319;52.162;5.302;2023-03-03T14:47:21;11.70;51.50
43999;DHT22;51319;52.162;5.302;2023-03-03T14:49:49;11.50;52.40
43999;DHT22;51319;52.162;5.302;2023-03-03T14:52:25;11.50;52.60
43999;DHT22;51319;52.162;5.302;2023-03-03T14:54:55;11.40;52.90
43999;DHT22;51319;52.162;5.302;2023-03-03T14:57:55;11.40;53.10
43999;DHT22;51319;52.162;5.302;2023-03-03T15:05:36;11.20;54.40
43999;DHT22;51319;52.162;5.302;2023-03-03T15:08:14;11.20;54.40
43999;DHT22;51319;52.162;5.302;2023-03-03T15:10:43;11.10;54.50
43999;DHT22;51319;52.162;5.302;2023-03-03T15:15:56;10.90;55.20
43999;DHT22;51319;52.162;5.302;2023-03-03T15:18:28;10.90;54.90
43999;DHT22;51319;52.162;5.302;2023-03-03T15:26:05;10.60;54.50
43999;DHT22;51319;52.162;5.302;2023-03-03T15:34:23;10.40;54.50
43999;DHT22;51319;52.162;5.302;2023-03-03T15:36:53;10.30;54.70
43999;DHT22;51319;52.162;5.302;2023-03-03T15:39:55;10.30;55.10
43999;DHT22;51319;52.162;5.302;2023-03-03T15:42:32;10.30;55.50
43999;DHT22;51319;52.162;5.302;2023-03-03T15:56:34;9.90;55.60
43999;DHT22;51319;52.162;5.302;2023-03-03T15:59:32;9.80;55.80
43999;DHT22;51319;52.162;5.302;2023-03-03T16:04:58;9.80;56.10
43999;DHT22;51319;52.162;5.302;2023-03-03T16:13:27;9.50;56.70
43999;DHT22;51319;52.162;5.302;2023-03-03T16:22:03;9.20;57.30
43999;DHT22;51319;52.162;5.302;2023-03-03T16:27:42;9.20;57.90
43999;DHT22;51319;52.162;5.302;2023-03-03T16:33:33;9.10;58.90
43999;DHT22;51319;52.162;5.302;2023-03-03T16:36:24;9.10;58.50
43999;DHT22;51319;52.162;5.302;2023-03-03T16:39:35;9.00;58.40
43999;DHT22;51319;52.162;5.302;2023-03-03T16:41:59;8.90;58.60
43999;DHT22;51319;52.162;5.302;2023-03-03T16:44:55;8.80;58.70
43999;DHT22;51319;52.162;5.302;2023-03-03T16:53:43;8.70;59.70
43999;DHT22;51319;52.162;5.302;2023-03-03T17:04:38;8.50;60.60
43999;DHT22;51319;52.162;5.302;2023-03-03T17:07:09;8.50;60.60
43999;DHT22;51319;52.162;5.302;2023-03-03T17:12:57;8.50;61.10
43999;DHT22;51319;52.162;5.302;2023-03-03T17:24:17;8.30;62.00
43999;DHT22;51319;52.162;5.302;2023-03-03T17:40:23;8.20;63.00
43999;DHT22;51319;52.162;5.302;2023-03-03T17:45:39;8.20;63.90
43999;DHT22;51319;52.162;5.302;2023-03-03T17:48:39;8.10;64.30
43999;DHT22;51319;52.162;5.302;2023-03-03T17:51:27;8.10;64.70
43999;DHT22;51319;52.162;5.302;2023-03-03T18:14:53;7.80;66.40
43999;DHT22;51319;52.162;5.302;2023-03-03T18:23:33;7.70;66.00
43999;DHT22;51319;52.162;5.302;2023-03-03T18:26:40;7.70;66.00
43999;DHT22;51319;52.162;5.302;2023-03-03T18:34:32;7.60;66.30
43999;DHT22;51319;52.162;5.302;2023-03-03T18:42:37;7.60;66.90
43999;DHT22;51319;52.162;5.302;2023-03-03T18:48:08;7.60;67.30
43999;DHT22;51319;52.162;5.302;2023-03-03T18:50:39;7.50;67.30
43999;DHT22;51319;52.162;5.302;2023-03-03T18:56:39;7.40;67.70
43999;DHT22;51319;52.162;5.302;2023-03-03T18:58:40;7.40;67.80
43999;DHT22;51319;52.162;5.302;2023-03-03T19:01:13;7.40;67.80
43999;DHT22;51319;52.162;5.302;2023-03-03T19:04:38;7.40;67.90
43999;DHT22;51319;52.162;5.302;2023-03-03T19:07:12;7.40;68.10
43999;DHT22;51319;52.162;5.302;2023-03-03T19:09:53;7.40;68.60
43999;DHT22;51319;52.162;5.302;2023-03-03T19:12:48;7.40;68.50
43999;DHT22;51319;52.162;5.302;2023-03-03T19:18:00;7.30;68.90
43999;DHT22;51319;52.162;5.302;2023-03-03T19:34:17;7.20;69.30
43999;DHT22;51319;52.162;5.302;2023-03-03T19:39:27;7.20;69.60
43999;DHT22;51319;52.162;5.302;2023-03-03T19:47:29;7.20;69.70
43999;DHT22;51319;52.162;5.302;2023-03-03T19:55:33;7.30;70.20
43999;DHT22;51319;52.162;5.302;2023-03-03T19:58:27;7.20;69.70
43999;DHT22;51319;52.162;5.302;2023-03-03T20:01:13;7.20;69.90
43999;DHT22;51319;52.162;5.302;2023-03-03T20:06:30;7.20;70.10
43999;DHT22;51319;52.162;5.302;2023-03-03T20:14:46;7.20;70.60
43999;DHT22;51319;52.162;5.302;2023-03-03T20:28:42;7.20;71.00
43999;DHT22;51319;52.162;5.302;2023-03-03T20:31:01;7.20;71.30
43999;DHT22;51319;52.162;5.302;2023-03-03T20:33:51;7.10;71.20
43999;DHT22;51319;52.162;5.302;2023-03-03T20:47:53;7.10;72.00
43999;DHT22;51319;52.162;5.302;2023-03-03T21:01:34;7.10;72.80
43999;DHT22;51319;52.162;5.302;2023-03-03T21:04:28;7.10;73.00
43999;DHT22;51319;52.162;5.302;2023-03-03T21:06:56;7.10;73.00
43999;DHT22;51319;52.162;5.302;2023-03-03T21:09:25;7.10;73.00
43999;DHT22;51319;52.162;5.302;2023-03-03T21:11:52;7.10;73.10
43999;DHT22;51319;52.162;5.302;2023-03-03T21:16:54;7.00;73.50
43999;DHT22;51319;52.162;5.302;2023-03-03T21:19:33;7.10;73.60
43999;DHT22;51319;52.162;5.302;2023-03-03T21:22:00;7.00;73.70
43999;DHT22;51319;52.162;5.302;2023-03-03T21:24:51;7.00;73.70
43999;DHT22;51319;52.162;5.302;2023-03-03T21:27:28;7.00;74.00
43999;DHT22;51319;52.162;5.302;2023-03-03T21:30:15;7.00;74.10
43999;DHT22;51319;52.162;5.302;2023-03-03T21:32:44;7.00;74.20
43999;DHT22;51319;52.162;5.302;2023-03-03T21:35:16;6.90;74.00
43999;DHT22;51319;52.162;5.302;2023-03-03T21:37:47;6.90;74.00
43999;DHT22;51319;52.162;5.302;2023-03-03T21:42:53;7.00;74.20
43999;DHT22;51319;52.162;5.302;2023-03-03T21:45:20;7.00;74.10
43999;DHT22;51319;52.162;5.302;2023-03-03T21:47:47;7.00;74.20
43999;DHT22;51319;52.162;5.302;2023-03-03T21:50:15;7.00;74.30
43999;DHT22;51319;52.162;5.302;2023-03-03T21:52:42;7.00;74.50
43999;DHT22;51319;52.162;5.302;2023-03-03T21:55:10;7.00;74.70
43999;DHT22;51319;52.162;5.302;2023-03-03T21:57:37;7.00;74.90
43999;DHT22;51319;52.162;5.302;2023-03-03T22:00:06;7.00;75.00
43999;DHT22;51319;52.162;5.302;2023-03-03T22:02:33;7.00;75.10
43999;DHT22;51319;52.162;5.302;2023-03-03T22:05:00;7.00;75.00
43999;DHT22;51319;52.162;5.302;2023-03-03T22:07:29;7.00;75.00
43999;DHT22;51319;52.162;5.302;2023-03-03T22:09:56;7.00;75.00
43999;DHT22;51319;52.162;5.302;2023-03-03T22:12:22;7.00;75.10
43999;DHT22;51319;52.162;5.302;2023-03-03T22:14:49;7.00;75.20
43999;DHT22;51319;52.162;5.302;2023-03-03T22:17:16;7.00;75.30
43999;DHT22;51319;52.162;5.302;2023-03-03T22:19:43;7.00;75.40
43999;DHT22;51319;52.162;5.302;2023-03-03T22:22:10;7.00;75.50
43999;DHT22;51319;52.162;5.302;2023-03-03T22:24:37;7.00;75.50
43999;DHT22;51319;52.162;5.302;2023-03-03T22:27:04;6.90;75.30
43999;DHT22;51319;52.162;5.302;2023-03-03T22:29:32;6.90;75.10
43999;DHT22;51319;52.162;5.302;2023-03-03T22:31:59;6.90;75.10
43999;DHT22;51319;52.162;5.302;2023-03-03T22:34:28;6.90;75.10
43999;DHT22;51319;52.162;5.302;2023-03-03T22:36:56;6.90;75.00
43999;DHT22;51319;52.162;5.302;2023-03-03T22:39:22;6.80;74.90
43999;DHT22;51319;52.162;5.302;2023-03-03T22:41:49;6.80;75.10
43999;DHT22;51319;52.162;5.302;2023-03-03T22:44:16;6.80;75.20
43999;DHT22;51319;52.162;5.302;2023-03-03T22:46:43;6.80;75.20
43999;DHT22;51319;52.162;5.302;2023-03-03T22:49:10;6.80;75.30
43999;DHT22;51319;52.162;5.302;2023-03-03T22:51:36;6.80;75.50
43999;DHT22;51319;52.162;5.302;2023-03-03T22:54:03;6.80;75.70